Time;durP1;ratioP1;P1;durP2;ratioP2;P2;SDS_P1;SDS_P2;PMS_P1;PMS_P2;Temp;Humidity;BMP_temperature;BMP_pressure;BME280_temperature;BME280_humidity;BME280_pressure;Samples;Min_cycle;Max_cycle;Signal;HPM_P1;HPM_P2
2021/11/30 00:00:59;;;;;;;44.08;7.15;;;5.80;90.00;;;;;;5044158;28;20115;-61
2021/11/30 00:03:25;;;;;;;60.13;8.85;;;5.80;90.00;;;;;;5026122;28;20380;-61
2021/11/30 00:05:51;;;;;;;52.45;8.45;;;5.70;89.90;;;;;;5011964;28;20040;-61
2021/11/30 00:08:16;;;;;;;51.15;7.60;;;5.70;89.90;;;;;;5010178;28;20111;-61
2021/11/30 00:10:48;;;;;;;60.47;8.18;;;5.70;89.90;;;;;;5010543;28;20028;-61
2021/11/30 00:13:19;;;;;;;30.40;6.85;;;5.70;89.90;;;;;;5028658;28;20082;-61
2021/11/30 00:15:45;;;;;;;67.45;8.95;;;5.70;89.90;;;;;;5027613;28;20502;-60
2021/11/30 00:18:11;;;;;;;43.67;7.60;;;5.70;89.90;;;;;;5026800;28;20024;-60
2021/11/30 00:20:37;;;;;;;48.22;6.93;;;5.70;90.00;;;;;;5013148;28;20035;-60
2021/11/30 00:23:03;;;;;;;38.80;7.50;;;5.70;90.00;;;;;;5047756;28;20093;-61
2021/11/30 00:25:28;;;;;;;53.50;8.85;;;5.70;90.00;;;;;;5031026;28;20036;-61
2021/11/30 00:27:54;;;;;;;52.15;9.10;;;5.70;90.10;;;;;;5016456;28;20368;-60
2021/11/30 00:30:21;;;;;;;40.30;7.45;;;5.70;90.00;;;;;;5047496;28;20464;-60
2021/11/30 00:32:47;;;;;;;26.05;6.32;;;5.70;89.90;;;;;;5030946;28;20469;-61
2021/11/30 00:35:12;;;;;;;41.35;7.22;;;5.70;89.90;;;;;;5030894;28;20173;-60
2021/11/30 00:37:38;;;;;;;56.75;7.90;;;5.60;89.90;;;;;;5013819;28;20048;-60
2021/11/30 00:40:04;;;;;;;44.05;6.72;;;5.60;90.00;;;;;;5015715;28;20028;-60
2021/11/30 00:42:29;;;;;;;44.80;7.28;;;5.60;89.90;;;;;;5047007;28;20124;-60
2021/11/30 00:44:59;;;;;;;51.92;7.45;;;5.60;90.00;;;;;;5030893;28;20178;-60
2021/11/30 00:47:28;;;;;;;64.07;8.57;;;5.60;90.00;;;;;;5015070;28;20472;-61
2021/11/30 00:49:54;;;;;;;73.88;10.00;;;5.60;90.00;;;;;;5046382;28;20437;-60
2021/11/30 00:52:20;;;;;;;57.60;8.25;;;5.60;90.10;;;;;;5030342;28;20028;-60
2021/11/30 00:54:46;;;;;;;50.72;7.22;;;5.60;90.00;;;;;;5031350;28;20093;-60
2021/11/30 00:57:13;;;;;;;49.38;6.18;;;5.60;90.00;;;;;;5014432;28;20697;-61
2021/11/30 00:59:38;;;;;;;40.33;6.20;;;5.60;90.00;;;;;;5030103;28;20067;-60
2021/11/30 01:02:04;;;;;;;44.50;6.00;;;5.60;89.90;;;;;;5029970;28;20036;-61
2021/11/30 01:04:29;;;;;;;50.50;6.85;;;5.70;89.70;;;;;;5013380;28;20726;-61
2021/11/30 01:06:55;;;;;;;33.65;5.72;;;5.60;89.80;;;;;;5029887;28;20044;-60
2021/11/30 01:09:21;;;;;;;33.72;4.80;;;5.60;89.70;;;;;;5014639;28;20989;-61
2021/11/30 01:11:46;;;;;;;37.42;6.15;;;5.50;89.80;;;;;;5030772;28;20195;-60
2021/11/30 01:14:12;;;;;;;37.20;5.35;;;5.60;89.70;;;;;;5030351;28;20029;-60
2021/11/30 01:16:37;;;;;;;40.50;5.35;;;5.50;90.10;;;;;;5029457;28;20047;-61
2021/11/30 01:19:03;;;;;;;50.00;6.20;;;5.50;89.60;;;;;;5031332;28;20604;-61
2021/11/30 01:21:29;;;;;;;20.77;5.50;;;5.50;89.60;;;;;;5014507;28;20476;-60
2021/11/30 01:23:54;;;;;;;30.25;5.72;;;5.50;89.60;;;;;;5044985;28;20024;-61
2021/11/30 01:26:20;;;;;;;36.15;6.55;;;5.50;89.60;;;;;;5029850;28;21133;-61
2021/11/30 01:28:45;;;;;;;33.63;5.32;;;5.50;89.60;;;;;;5030045;28;20078;-62
2021/11/30 01:31:11;;;;;;;43.08;5.22;;;5.50;89.70;;;;;;5030226;28;20040;-60
2021/11/30 01:33:36;;;;;;;28.77;5.75;;;5.50;89.90;;;;;;5029444;28;20282;-61
2021/11/30 01:36:03;;;;;;;29.73;5.53;;;5.50;89.90;;;;;;5028502;28;20455;-61
2021/11/30 01:38:30;;;;;;;35.97;5.35;;;5.50;89.80;;;;;;5044453;28;20044;-61
2021/11/30 01:40:57;;;;;;;27.23;5.80;;;5.50;90.00;;;;;;5029030;28;20028;-61
2021/11/30 01:43:25;;;;;;;33.78;5.80;;;5.50;90.00;;;;;;5029747;28;20036;-61
2021/11/30 01:46:07;;;;;;;31.55;4.90;;;5.40;89.90;;;;;;5031158;28;20210;-60
2021/11/30 01:51:17;;;;;;;31.73;5.05;;;5.40;90.00;;;;;;5046136;28;20101;-63
2021/11/30 01:53:43;;;;;;;45.53;5.75;;;5.40;90.00;;;;;;5012420;28;20025;-61
2021/11/30 01:56:08;;;;;;;31.55;5.45;;;5.40;90.00;;;;;;5012585;28;20098;-60
2021/11/30 01:58:34;;;;;;;19.50;4.68;;;5.40;89.90;;;;;;5029567;28;20032;-61
2021/11/30 02:00:59;;;;;;;24.73;4.82;;;5.40;89.90;;;;;;5014157;28;20412;-61
2021/11/30 02:03:25;;;;;;;23.90;5.10;;;5.40;90.00;;;;;;5012168;28;20024;-60
2021/11/30 02:05:51;;;;;;;30.05;5.05;;;5.40;89.70;;;;;;5029390;28;20036;-61
2021/11/30 02:08:16;;;;;;;19.98;4.28;;;5.40;89.60;;;;;;5028728;28;20832;-60
2021/11/30 02:10:42;;;;;;;23.77;4.47;;;5.40;89.50;;;;;;5013615;28;20456;-63
2021/11/30 02:13:07;;;;;;;20.75;4.45;;;5.30;89.50;;;;;;5030729;28;20029;-62
2021/11/30 02:15:38;;;;;;;23.58;5.15;;;5.40;89.60;;;;;;5028843;28;20078;-61
2021/11/30 02:18:06;;;;;;;25.55;4.25;;;5.40;89.60;;;;;;5029044;28;20480;-61
2021/11/30 02:20:36;;;;;;;19.52;4.00;;;5.40;89.60;;;;;;5026704;28;20110;-61
2021/11/30 02:23:02;;;;;;;22.00;4.45;;;5.30;89.60;;;;;;5028563;28;20020;-60
2021/11/30 02:25:27;;;;;;;15.20;3.60;;;5.30;89.50;;;;;;5031573;28;20518;-60
2021/11/30 02:27:53;;;;;;;20.25;4.28;;;5.30;89.40;;;;;;5029637;28;20072;-61
2021/11/30 02:30:19;;;;;;;12.40;3.88;;;5.30;89.50;;;;;;5011678;28;20147;-61
2021/11/30 02:32:44;;;;;;;18.20;4.15;;;5.30;89.40;;;;;;5027391;28;20036;-61
2021/11/30 02:35:11;;;;;;;17.17;4.15;;;5.30;89.50;;;;;;5026751;28;20117;-60
2021/11/30 02:37:43;;;;;;;12.20;3.75;;;5.30;89.30;;;;;;5011968;28;20476;-61
2021/11/30 02:40:09;;;;;;;17.10;4.28;;;5.30;89.10;;;;;;5032782;28;20131;-60
2021/11/30 02:42:34;;;;;;;13.45;4.07;;;5.30;89.10;;;;;;5027095;28;20201;-61
2021/11/30 02:45:00;;;;;;;17.65;3.95;;;5.30;89.10;;;;;;5027532;28;20107;-61
2021/11/30 02:47:26;;;;;;;11.18;3.92;;;5.20;89.10;;;;;;5061194;28;20051;-60
2021/11/30 02:49:51;;;;;;;16.27;3.63;;;5.30;89.20;;;;;;5010275;28;20114;-60
2021/11/30 02:52:19;;;;;;;13.23;3.70;;;5.30;89.20;;;;;;5012823;28;20025;-63
2021/11/30 02:54:49;;;;;;;8.77;3.45;;;5.20;88.80;;;;;;5044688;28;20056;-61
2021/11/30 02:57:16;;;;;;;10.60;3.40;;;5.30;88.90;;;;;;5027504;28;20021;-61
2021/11/30 02:59:43;;;;;;;8.98;3.35;;;5.30;88.80;;;;;;5010958;28;20476;-61
2021/11/30 03:02:14;;;;;;;8.88;3.08;;;5.20;88.80;;;;;;5026832;28;20029;-61
2021/11/30 03:04:43;;;;;;;20.92;3.90;;;5.20;88.80;;;;;;5028971;28;20272;-61
2021/11/30 03:07:13;;;;;;;15.20;3.30;;;5.20;88.50;;;;;;5012280;28;20111;-61
2021/11/30 03:09:39;;;;;;;8.07;3.00;;;5.20;88.70;;;;;;5027781;28;20494;-61
2021/11/30 03:12:05;;;;;;;10.38;2.72;;;5.10;88.80;;;;;;5026786;28;20131;-60
2021/11/30 03:14:31;;;;;;;7.32;3.28;;;5.20;88.90;;;;;;5028011;28;21270;-60
2021/11/30 03:16:57;;;;;;;9.23;3.38;;;5.10;88.70;;;;;;5012519;28;20025;-61
2021/11/30 03:19:22;;;;;;;10.27;3.58;;;5.10;88.70;;;;;;5013571;28;20055;-61
2021/11/30 03:21:48;;;;;;;9.50;3.53;;;5.10;88.70;;;;;;5011373;28;20492;-61
2021/11/30 03:24:15;;;;;;;13.95;3.85;;;5.10;88.70;;;;;;5011590;28;20023;-61
2021/11/30 03:26:40;;;;;;;14.68;4.07;;;5.10;88.70;;;;;;5060601;28;20399;-61
2021/11/30 03:29:06;;;;;;;6.35;2.78;;;5.10;88.60;;;;;;5027713;28;20032;-61
2021/11/30 03:32:01;;;;;;;12.65;3.28;;;5.10;88.50;;;;;;5029300;28;20543;-61
2021/11/30 03:34:19;;;;;;;;;;;5.20;88.50;;;;;;5047215;28;20041;-62
2021/11/30 03:36:46;;;;;;;5.05;3.30;;;5.10;88.40;;;;;;5060453;28;19916;-61
2021/11/30 03:39:16;;;;;;;10.00;2.75;;;5.10;88.30;;;;;;5010147;28;20035;-61
2021/11/30 03:41:42;;;;;;;5.22;3.03;;;5.10;88.50;;;;;;5043695;28;20024;-61
2021/11/30 03:44:08;;;;;;;7.82;2.72;;;5.10;88.60;;;;;;5012506;28;20017;-61
2021/11/30 03:46:34;;;;;;;6.72;3.05;;;5.10;88.70;;;;;;5027119;28;20356;-61
2021/11/30 03:49:00;;;;;;;10.15;3.05;;;5.10;88.60;;;;;;5027660;28;20114;-61
2021/11/30 03:51:25;;;;;;;4.32;2.50;;;5.10;88.50;;;;;;5026456;28;20115;-61
2021/11/30 03:53:51;;;;;;;5.13;2.53;;;5.10;88.50;;;;;;5026896;28;20476;-61
2021/11/30 03:56:16;;;;;;;5.28;2.85;;;5.10;88.60;;;;;;5028605;28;20025;-62
2021/11/30 03:58:42;;;;;;;4.80;2.85;;;5.10;88.80;;;;;;5012442;28;20021;-61
2021/11/30 04:01:08;;;;;;;8.30;2.95;;;5.10;88.80;;;;;;5043852;28;20029;-61
2021/11/30 04:03:34;;;;;;;5.65;2.60;;;5.10;88.80;;;;;;5043791;28;20033;-61
2021/11/30 04:06:00;;;;;;;9.80;3.08;;;5.10;88.80;;;;;;5010794;28;20086;-61
2021/11/30 04:08:26;;;;;;;5.63;2.70;;;5.10;88.90;;;;;;5044244;28;20067;-61
2021/11/30 04:10:51;;;;;;;4.63;3.10;;;5.10;89.00;;;;;;5012711;28;20036;-61
2021/11/30 04:13:17;;;;;;;6.20;2.60;;;5.10;88.80;;;;;;5011177;28;20086;-61
2021/11/30 04:15:43;;;;;;;6.47;2.90;;;5.10;88.90;;;;;;5043350;28;20119;-61
2021/11/30 04:18:08;;;;;;;10.23;2.70;;;5.10;88.90;;;;;;5026911;28;20070;-61
2021/11/30 04:20:34;;;;;;;6.65;2.53;;;5.20;88.90;;;;;;5025915;28;20039;-61
2021/11/30 04:22:59;;;;;;;11.77;2.45;;;5.10;88.80;;;;;;5011914;28;20055;-61
2021/11/30 04:25:25;;;;;;;10.60;2.95;;;5.20;88.80;;;;;;5011531;28;20038;-61
2021/11/30 04:27:50;;;;;;;10.82;3.22;;;5.20;88.80;;;;;;5052445;28;20066;-61
2021/11/30 04:30:16;;;;;;;8.43;2.88;;;5.20;88.80;;;;;;5023324;28;20036;-61
2021/11/30 04:32:41;;;;;;;8.20;2.55;;;5.10;88.70;;;;;;5027147;28;20063;-61
2021/11/30 04:35:08;;;;;;;5.28;2.38;;;5.10;88.80;;;;;;5024608;28;20029;-61
2021/11/30 04:37:33;;;;;;;7.03;2.65;;;5.20;88.70;;;;;;5006720;28;20027;-61
2021/11/30 04:39:59;;;;;;;6.45;2.65;;;5.10;88.70;;;;;;5006212;28;20017;-61
2021/11/30 04:42:27;;;;;;;6.88;3.10;;;5.10;88.60;;;;;;5039089;28;20585;-61
2021/11/30 04:45:07;;;;;;;9.95;3.80;;;5.10;88.60;;;;;;5008479;28;21367;-61
2021/11/30 04:47:36;;;;;;;7.85;3.75;;;5.10;88.50;;;;;;5026553;28;20806;-61
2021/11/30 04:50:05;;;;;;;10.52;3.33;;;5.10;88.50;;;;;;5041632;28;20021;-61
2021/11/30 04:52:31;;;;;;;9.55;3.40;;;5.10;88.40;;;;;;5022676;28;20024;-61
2021/11/30 04:54:57;;;;;;;5.30;2.97;;;5.10;88.50;;;;;;5022149;28;20275;-61
2021/11/30 04:57:23;;;;;;;4.25;3.22;;;5.10;88.50;;;;;;5038762;28;20033;-61
2021/11/30 04:59:48;;;;;;;6.90;3.45;;;5.10;88.50;;;;;;5024985;28;20040;-61
2021/11/30 05:02:14;;;;;;;6.82;3.10;;;5.20;88.50;;;;;;5023507;28;20056;-61
2021/11/30 05:04:40;;;;;;;6.15;3.03;;;5.10;88.60;;;;;;5039004;28;20055;-61
2021/11/30 05:07:05;;;;;;;6.72;3.08;;;5.10;88.50;;;;;;5043485;28;20115;-61
2021/11/30 05:09:31;;;;;;;9.73;2.85;;;5.10;88.50;;;;;;5010335;28;20059;-61
2021/11/30 05:11:57;;;;;;;22.77;4.38;;;5.10;88.50;;;;;;5027471;28;20059;-60
2021/11/30 05:14:23;;;;;;;18.95;4.55;;;5.10;88.50;;;;;;5026378;28;20468;-61
2021/11/30 05:16:48;;;;;;;15.85;4.45;;;5.10;88.50;;;;;;5028727;28;20043;-62
2021/11/30 05:19:14;;;;;;;16.77;3.47;;;5.10;89.20;;;;;;5010835;28;20646;-61
2021/11/30 05:21:39;;;;;;;25.13;3.88;;;5.10;88.50;;;;;;5024953;28;20384;-61
2021/11/30 05:24:08;;;;;;;19.20;3.92;;;5.10;88.50;;;;;;5027058;28;20036;-61
2021/11/30 05:26:33;;;;;;;20.58;3.60;;;5.10;88.50;;;;;;5009342;28;20041;-61
2021/11/30 05:28:59;;;;;;;15.20;3.42;;;5.10;88.50;;;;;;5043787;28;20037;-61
2021/11/30 05:31:24;;;;;;;15.60;4.18;;;5.10;88.50;;;;;;5026908;28;20020;-61
2021/11/30 05:33:50;;;;;;;17.25;3.88;;;5.10;88.60;;;;;;5023698;28;20024;-61
2021/11/30 05:36:18;;;;;;;12.43;3.75;;;5.10;88.60;;;;;;5009043;28;20052;-61
2021/11/30 05:38:44;;;;;;;20.55;4.22;;;5.10;88.50;;;;;;5007636;28;20029;-61
2021/11/30 05:41:10;;;;;;;17.65;3.67;;;5.10;88.30;;;;;;5045466;28;20020;-61
2021/11/30 05:43:35;;;;;;;12.75;3.47;;;5.10;88.30;;;;;;5010221;28;20113;-61
2021/11/30 05:46:01;;;;;;;20.70;4.18;;;5.10;88.20;;;;;;5025375;28;20024;-61
2021/11/30 05:48:26;;;;;;;20.95;3.80;;;5.10;88.10;;;;;;5042492;28;20070;-62
2021/11/30 05:50:53;;;;;;;12.93;3.58;;;5.00;88.20;;;;;;5009373;28;20112;-61
2021/11/30 05:53:18;;;;;;;19.38;3.92;;;5.00;88.20;;;;;;5025206;28;20024;-61
2021/11/30 05:55:44;;;;;;;10.20;3.22;;;5.10;88.30;;;;;;5011787;28;20024;-61
2021/11/30 05:58:14;;;;;;;12.20;2.95;;;5.00;88.20;;;;;;5044712;28;20543;-61
2021/11/30 06:00:39;;;;;;;12.73;3.55;;;5.00;88.10;;;;;;5025947;28;20081;-61
2021/11/30 06:03:07;;;;;;;17.70;3.17;;;5.10;88.20;;;;;;5042507;28;20024;-61
2021/11/30 06:05:33;;;;;;;13.25;3.10;;;5.00;88.20;;;;;;5041719;28;20060;-61
2021/11/30 06:07:59;;;;;;;10.05;3.30;;;5.00;88.30;;;;;;5028047;28;20024;-62
2021/11/30 06:10:25;;;;;;;7.78;2.53;;;5.00;88.40;;;;;;5010251;28;20046;-61
2021/11/30 06:12:51;;;;;;;16.08;3.53;;;5.00;89.00;;;;;;5007844;28;20106;-61
2021/11/30 06:15:16;;;;;;;29.70;5.45;;;5.00;88.40;;;;;;5008273;28;20120;-61
2021/11/30 06:17:42;;;;;;;31.17;4.07;;;5.00;88.60;;;;;;5006278;28;20073;-61
2021/11/30 06:20:10;;;;;;;14.02;3.28;;;5.00;88.30;;;;;;5010455;28;20432;-61
2021/11/30 06:22:36;;;;;;;25.48;4.25;;;5.00;88.40;;;;;;5025202;28;20277;-61
2021/11/30 06:25:03;;;;;;;19.48;3.42;;;5.00;88.50;;;;;;5007116;28;20551;-61
2021/11/30 06:27:28;;;;;;;9.00;3.40;;;5.00;88.50;;;;;;5039303;28;20044;-61
2021/11/30 06:29:54;;;;;;;12.73;2.85;;;5.00;88.40;;;;;;5013219;28;20502;-61
2021/11/30 06:32:19;;;;;;;13.55;3.13;;;5.00;88.50;;;;;;5021642;28;20120;-61
2021/11/30 06:34:45;;;;;;;16.08;2.70;;;4.90;88.40;;;;;;5043565;28;20031;-62
2021/11/30 06:37:11;;;;;;;8.80;2.58;;;5.00;88.30;;;;;;5041943;28;20028;-61
2021/11/30 06:39:36;;;;;;;10.70;2.92;;;5.00;88.40;;;;;;5008004;28;20027;-61
2021/11/30 06:42:02;;;;;;;9.75;3.08;;;4.90;88.30;;;;;;5043335;28;20115;-61
2021/11/30 06:44:28;;;;;;;9.77;2.88;;;4.90;88.30;;;;;;5008998;28;20052;-61
2021/11/30 06:46:55;;;;;;;8.18;3.03;;;5.20;88.40;;;;;;5040109;28;20087;-61
2021/11/30 06:49:20;;;;;;;13.23;2.95;;;4.90;88.30;;;;;;5008522;28;20020;-61
2021/11/30 06:51:46;;;;;;;7.63;2.40;;;5.00;88.20;;;;;;5023889;28;20546;-61
2021/11/30 06:54:11;;;;;;;9.68;2.85;;;4.80;87.90;;;;;;5009387;28;20024;-61
2021/11/30 06:56:37;;;;;;;9.32;2.58;;;4.90;87.90;;;;;;5024409;28;20033;-61
2021/11/30 06:59:02;;;;;;;7.82;2.30;;;4.80;87.70;;;;;;5026828;28;20021;-61
2021/11/30 07:01:31;;;;;;;5.95;2.13;;;4.80;87.70;;;;;;5027184;28;20525;-61
2021/11/30 07:03:58;;;;;;;8.52;2.78;;;4.80;87.60;;;;;;5024507;28;20582;-61
2021/11/30 07:06:34;;;;;;;8.68;2.13;;;4.80;87.60;;;;;;5040981;28;20118;-61
2021/11/30 07:14:15;;;;;;;8.57;2.38;;;4.80;87.60;;;;;;5032069;28;20060;-61
2021/11/30 07:16:40;;;;;;;8.25;2.45;;;4.80;87.40;;;;;;5024299;28;20375;-61
2021/11/30 07:19:06;;;;;;;8.50;2.42;;;4.80;87.50;;;;;;5006875;28;20013;-61
2021/11/30 07:21:32;;;;;;;7.88;2.35;;;4.80;87.40;;;;;;5040357;28;20043;-61
2021/11/30 07:23:58;;;;;;;7.95;2.30;;;4.80;87.40;;;;;;5025512;28;20039;-61
2021/11/30 07:26:25;;;;;;;5.40;2.28;;;4.80;87.30;;;;;;5008168;28;20028;-61
2021/11/30 07:28:50;;;;;;;4.07;2.22;;;4.80;87.10;;;;;;5010199;28;20048;-61
2021/11/30 07:31:16;;;;;;;6.18;2.20;;;4.80;87.10;;;;;;5008338;28;20441;-61
2021/11/30 07:33:44;;;;;;;7.43;2.00;;;4.80;86.90;;;;;;5030505;28;20492;-63
2021/11/30 07:36:12;;;;;;;5.82;2.17;;;4.80;86.90;;;;;;5024038;28;20049;-61
2021/11/30 07:38:38;;;;;;;12.63;2.60;;;4.90;86.90;;;;;;5021537;28;20032;-61
2021/11/30 07:41:04;;;;;;;14.20;2.97;;;4.80;86.80;;;;;;5026251;28;20020;-61
2021/11/30 07:43:29;;;;;;;8.80;2.40;;;4.90;86.80;;;;;;5008074;28;20048;-61
2021/11/30 07:45:55;;;;;;;8.60;2.53;;;4.80;86.80;;;;;;5008703;28;20102;-61
2021/11/30 07:48:22;;;;;;;16.10;2.85;;;4.80;86.70;;;;;;5007873;28;20051;-61
2021/11/30 07:50:48;;;;;;;11.18;2.15;;;4.80;87.40;;;;;;5023906;28;20169;-61
2021/11/30 07:53:14;;;;;;;9.10;2.28;;;4.80;86.60;;;;;;5010610;28;20115;-61
2021/11/30 07:55:40;;;;;;;6.15;2.20;;;4.80;86.50;;;;;;5023442;28;20024;-61
2021/11/30 07:58:06;;;;;;;9.50;2.20;;;4.80;86.40;;;;;;5025053;28;21023;-61
2021/11/30 08:00:31;;;;;;;15.02;2.90;;;4.80;86.30;;;;;;5024298;28;20174;-61
2021/11/30 08:02:57;;;;;;;23.45;3.70;;;4.80;86.50;;;;;;5040284;28;20123;-62
2021/11/30 08:05:23;;;;;;;19.95;3.65;;;4.60;86.40;;;;;;5007851;28;20045;-61
2021/11/30 08:07:48;;;;;;;13.10;2.80;;;4.80;86.40;;;;;;5006920;28;20051;-61
2021/11/30 08:10:16;;;;;;;15.68;3.25;;;4.90;86.30;;;;;;5008452;28;20037;-61
2021/11/30 08:12:42;;;;;;;17.55;3.05;;;4.90;86.20;;;;;;5021599;28;20103;-61
2021/11/30 08:15:08;;;;;;;17.95;3.05;;;4.80;86.10;;;;;;5039852;28;20170;-61
2021/11/30 08:17:34;;;;;;;18.85;3.60;;;4.90;86.20;;;;;;5023044;28;20578;-61
2021/11/30 08:20:01;;;;;;;20.92;4.03;;;4.90;86.10;;;;;;5041414;28;20017;-61
2021/11/30 08:22:26;;;;;;;28.92;3.40;;;4.90;86.50;;;;;;5021951;28;20205;-62
2021/11/30 08:24:52;;;;;;;16.77;4.07;;;4.90;86.10;;;;;;5040211;28;20070;-61
2021/11/30 08:27:19;;;;;;;21.27;3.42;;;4.90;86.00;;;;;;5038298;28;20044;-61
2021/11/30 08:29:47;;;;;;;14.52;4.07;;;4.90;86.30;;;;;;5041359;28;20033;-61
2021/11/30 08:32:13;;;;;;;27.10;4.50;;;4.90;86.20;;;;;;5025402;28;20060;-61
2021/11/30 08:34:39;;;;;;;21.98;3.45;;;4.90;86.20;;;;;;5026569;28;20052;-61
2021/11/30 08:37:05;;;;;;;41.88;5.95;;;4.90;86.20;;;;;;5042393;28;20032;-61
2021/11/30 08:39:32;;;;;;;39.58;5.18;;;4.90;86.30;;;;;;5041320;28;20038;-61
2021/11/30 08:41:58;;;;;;;22.85;5.20;;;5.00;86.40;;;;;;5013948;28;20156;-61
2021/11/30 08:44:24;;;;;;;28.75;5.32;;;5.00;86.10;;;;;;5012992;28;20103;-61
2021/11/30 08:46:49;;;;;;;28.17;4.50;;;5.00;86.20;;;;;;5047652;28;20036;-61
2021/11/30 08:49:15;;;;;;;39.45;5.35;;;5.00;86.30;;;;;;5014387;28;20024;-61
2021/11/30 08:51:40;;;;;;;29.73;4.60;;;5.00;86.30;;;;;;5016527;28;20037;-61
2021/11/30 08:54:06;;;;;;;50.97;6.60;;;5.00;86.30;;;;;;5045386;28;20020;-63
2021/11/30 08:56:32;;;;;;;37.03;6.05;;;5.00;86.20;;;;;;5031378;28;20531;-61
2021/11/30 08:58:57;;;;;;;45.67;6.53;;;5.00;86.20;;;;;;5033041;28;20028;-61
2021/11/30 09:01:23;;;;;;;37.90;5.95;;;5.10;86.20;;;;;;5015290;28;20020;-60
2021/11/30 09:03:49;;;;;;;38.00;5.63;;;5.10;86.10;;;;;;5032214;28;20094;-61
2021/11/30 09:06:14;;;;;;;49.92;6.25;;;5.10;86.10;;;;;;5013721;28;20044;-61
2021/11/30 09:08:40;;;;;;;47.90;5.53;;;5.10;85.80;;;;;;5029820;28;20040;-61
2021/11/30 09:11:05;;;;;;;41.13;6.22;;;5.10;85.80;;;;;;5030240;28;20056;-61
2021/11/30 09:13:31;;;;;;;27.10;5.20;;;5.10;85.80;;;;;;5031826;28;20040;-61
2021/11/30 09:15:57;;;;;;;31.75;4.40;;;5.10;85.90;;;;;;5030679;28;20079;-61
2021/11/30 09:18:23;;;;;;;31.20;5.35;;;5.10;85.90;;;;;;5031428;28;21270;-61
2021/11/30 09:20:48;;;;;;;32.58;5.25;;;5.10;85.90;;;;;;5030426;28;20094;-61
2021/11/30 09:23:14;;;;;;;21.63;4.30;;;5.20;86.10;;;;;;5061716;28;20052;-61
2021/11/30 09:25:40;;;;;;;33.80;5.28;;;5.10;86.10;;;;;;5025462;28;20044;-61
2021/11/30 09:28:05;;;;;;;25.67;4.68;;;5.20;86.10;;;;;;5044809;28;20115;-61
2021/11/30 09:30:33;;;;;;;32.20;4.75;;;5.20;86.10;;;;;;5027205;28;20032;-61
2021/11/30 09:32:59;;;;;;;31.35;4.65;;;5.20;86.00;;;;;;5031582;28;20402;-61
2021/11/30 09:35:25;;;;;;;26.83;4.53;;;5.10;85.90;;;;;;5031827;28;20017;-60
2021/11/30 09:37:51;;;;;;;23.15;3.70;;;5.20;85.90;;;;;;5030367;28;20449;-61
2021/11/30 09:40:19;;;;;;;22.60;3.40;;;5.20;85.80;;;;;;5030540;28;20032;-61
2021/11/30 09:42:44;;;;;;;25.60;3.95;;;5.20;85.70;;;;;;5014573;28;20024;-61
2021/11/30 09:45:11;;;;;;;21.13;4.35;;;5.20;85.90;;;;;;5048517;28;20044;-61
2021/11/30 09:47:37;;;;;;;26.45;4.68;;;5.20;86.00;;;;;;5027753;28;20033;-61
2021/11/30 09:50:05;;;;;;;32.28;4.80;;;5.20;85.90;;;;;;5027165;28;20206;-61
2021/11/30 09:52:30;;;;;;;25.13;4.28;;;5.20;85.90;;;;;;5029141;28;20024;-61
2021/11/30 09:54:56;;;;;;;12.73;3.42;;;5.20;86.00;;;;;;5012662;28;20036;-61
2021/11/30 09:57:22;;;;;;;15.95;3.90;;;5.20;86.00;;;;;;5023248;28;20422;-61
2021/11/30 09:59:48;;;;;;;22.20;3.78;;;5.20;85.90;;;;;;5029673;28;20024;-61
2021/11/30 10:02:14;;;;;;;17.38;4.22;;;5.10;85.90;;;;;;5043571;28;20581;-61
2021/11/30 10:04:40;;;;;;;15.07;3.90;;;5.10;86.00;;;;;;5008225;28;20052;-61
2021/11/30 10:07:06;;;;;;;18.70;3.85;;;5.20;86.00;;;;;;5024236;28;20469;-61
2021/11/30 10:09:32;;;;;;;16.27;3.55;;;5.20;85.90;;;;;;5043529;28;20060;-61
2021/11/30 10:12:02;;;;;;;18.50;3.70;;;5.20;85.90;;;;;;5026144;28;20448;-64
2021/11/30 10:14:36;;;;;;;18.25;3.50;;;5.20;85.90;;;;;;5042412;28;20771;-61
2021/11/30 10:17:22;;;;;;;19.65;3.22;;;5.20;85.80;;;;;;5058773;28;20386;-60
2021/11/30 10:19:52;;;;;;;;;;;5.20;85.80;;;;;;5061599;28;20049;-61
2021/11/30 10:22:54;;;;;;;16.60;4.07;;;5.20;85.90;;;;;;5060824;28;20355;-61
2021/11/30 10:25:28;;;;;;;22.65;4.13;;;5.20;85.80;;;;;;5029284;28;20739;-61
2021/11/30 10:27:58;;;;;;;13.82;3.53;;;5.20;85.20;;;;;;5025747;28;20028;-61
2021/11/30 10:30:26;;;;;;;15.23;4.00;;;5.20;85.70;;;;;;5028654;28;20491;-61
2021/11/30 10:32:52;;;;;;;18.25;3.15;;;5.30;85.70;;;;;;5011657;28;20562;-61
2021/11/30 10:35:18;;;;;;;55.40;5.72;;;5.20;85.60;;;;;;5011429;28;20016;-61
2021/11/30 10:37:45;;;;;;;44.88;5.30;;;5.20;85.50;;;;;;5006508;28;20119;-61
2021/11/30 10:40:32;;;;;;;32.35;4.45;;;5.20;85.50;;;;;;5039184;28;20204;-61
2021/11/30 10:42:59;;;;;;;26.25;4.60;;;5.30;85.60;;;;;;5025479;28;20035;-61
2021/11/30 10:45:32;;;;;;;115.13;11.52;;;5.30;85.60;;;;;;5008454;28;20694;-61
2021/11/30 10:48:14;;;;;;;36.25;4.75;;;5.30;85.70;;;;;;5042858;28;20051;-61
2021/11/30 10:50:42;;;;;;;22.02;4.70;;;5.30;85.90;;;;;;5043777;28;20024;-61
2021/11/30 10:53:25;;;;;;;40.50;4.72;;;5.30;85.70;;;;;;5042838;28;20132;-61
2021/11/30 10:55:51;;;;;;;34.70;4.57;;;5.30;85.70;;;;;;5039876;28;20049;-61
2021/11/30 10:58:17;;;;;;;24.55;4.53;;;5.30;85.40;;;;;;5058952;28;20020;-60
2021/11/30 11:00:43;;;;;;;29.50;4.43;;;5.30;85.60;;;;;;5005239;28;20025;-61
2021/11/30 11:03:13;;;;;;;33.15;4.38;;;5.30;85.50;;;;;;5038761;28;20039;-60
2021/11/30 11:05:46;;;;;;;24.90;4.05;;;5.20;85.20;;;;;;5025546;28;20049;-61
2021/11/30 11:08:16;;;;;;;29.08;3.85;;;5.20;85.30;;;;;;5043990;28;20085;-61
2021/11/30 11:10:44;;;;;;;25.88;4.82;;;5.30;85.00;;;;;;5042174;28;20039;-61
2021/11/30 11:13:24;;;;;;;45.90;5.15;;;5.30;85.30;;;;;;5059578;28;20028;-62
2021/11/30 11:15:51;;;;;;;27.35;3.90;;;5.30;85.50;;;;;;5026996;28;20115;-60
2021/11/30 11:18:38;;;;;;;27.10;4.72;;;5.30;85.30;;;;;;5012219;28;20076;-63
2021/11/30 11:21:23;;;;;;;17.65;3.53;;;5.30;85.20;;;;;;5024120;28;20476;-61
2021/11/30 11:23:59;;;;;;;41.80;5.07;;;5.30;85.00;;;;;;5024965;28;20044;-62
2021/11/30 11:26:47;;;;;;;53.20;5.53;;;5.30;85.10;;;;;;5057984;28;20028;-61
2021/11/30 11:29:16;;;;;;;41.33;4.82;;;5.30;85.10;;;;;;5012842;28;20116;-61
2021/11/30 11:31:52;;;;;;;43.08;5.13;;;5.30;85.10;;;;;;5039938;28;20040;-61
2021/11/30 11:34:20;;;;;;;48.72;4.75;;;5.40;85.10;;;;;;5028568;28;20029;-61
2021/11/30 11:36:47;;;;;;;35.65;5.45;;;5.40;85.00;;;;;;5010943;28;20024;-61
2021/11/30 11:39:15;;;;;;;25.92;5.18;;;5.40;85.60;;;;;;5026955;28;20029;-61
2021/11/30 11:41:40;;;;;;;58.38;6.32;;;5.40;84.70;;;;;;5043379;28;20028;-61
2021/11/30 11:44:06;;;;;;;50.08;6.35;;;5.40;85.30;;;;;;5009222;28;20028;-61
2021/11/30 11:46:33;;;;;;;39.25;5.55;;;5.50;85.30;;;;;;5026848;28;20041;-61
2021/11/30 11:48:59;;;;;;;32.85;5.85;;;5.50;85.10;;;;;;5012675;28;20024;-61
2021/11/30 11:51:35;;;;;;;54.08;6.30;;;5.50;85.20;;;;;;5011457;28;20029;-61
2021/11/30 11:54:01;;;;;;;64.30;7.68;;;5.50;85.20;;;;;;5025757;28;20098;-61
2021/11/30 11:56:27;;;;;;;37.20;5.75;;;5.50;85.10;;;;;;5025585;28;20504;-61
2021/11/30 11:59:13;;;;;;;37.53;5.75;;;5.50;85.20;;;;;;5007839;28;20447;-61
2021/11/30 12:01:41;;;;;;;46.70;6.15;;;5.50;85.00;;;;;;5007143;28;20047;-61
2021/11/30 12:04:11;;;;;;;37.88;5.68;;;5.50;84.70;;;;;;5007950;28;20040;-61
2021/11/30 12:06:51;;;;;;;38.42;5.47;;;5.50;84.70;;;;;;5040953;28;20024;-61
2021/11/30 12:09:18;;;;;;;34.78;6.13;;;5.50;84.50;;;;;;5025152;28;20066;-61
2021/11/30 12:11:53;;;;;;;51.65;6.82;;;5.60;84.50;;;;;;5023194;28;20054;-61
2021/11/30 12:14:29;;;;;;;45.22;5.30;;;5.60;85.20;;;;;;5019647;28;20032;-62
2021/11/30 12:17:06;;;;;;;;;;;5.60;84.50;;;;;;5046457;28;20106;-60
2021/11/30 12:19:33;;;;;;;41.05;6.38;;;5.60;84.50;;;;;;5045492;28;19935;-60
2021/11/30 12:21:58;;;;;;;28.20;5.05;;;5.50;84.40;;;;;;5026439;28;20044;-61
2021/11/30 12:24:34;;;;;;;55.83;8.00;;;5.60;84.80;;;;;;5013531;28;20033;-61
2021/11/30 12:27:01;;;;;;;55.42;7.35;;;5.60;84.60;;;;;;5009468;28;20045;-61
2021/11/30 12:29:30;;;;;;;48.00;6.25;;;5.60;84.50;;;;;;5009564;28;20341;-61
2021/11/30 12:31:56;;;;;;;51.03;6.75;;;5.60;84.60;;;;;;5042542;28;20024;-61
2021/11/30 12:34:36;;;;;;;56.95;7.07;;;5.60;84.50;;;;;;5059308;28;20078;-61
2021/11/30 12:37:09;;;;;;;44.08;6.40;;;5.60;84.60;;;;;;5012140;28;20036;-61
2021/11/30 12:40:09;;;;;;;38.50;5.32;;;5.60;84.50;;;;;;5025898;28;20043;-60
2021/11/30 12:42:37;;;;;;;46.00;6.72;;;5.60;84.50;;;;;;5003519;28;20053;-61
2021/11/30 12:45:04;;;;;;;42.30;6.95;;;5.60;84.40;;;;;;5045441;28;20237;-61
2021/11/30 12:47:29;;;;;;;46.33;6.63;;;5.70;84.30;;;;;;5007838;28;20229;-61
2021/11/30 12:49:55;;;;;;;48.90;5.60;;;5.60;84.40;;;;;;5011533;28;20034;-61
2021/11/30 12:52:26;;;;;;;56.17;7.43;;;5.60;84.40;;;;;;5042593;28;20037;-61
2021/11/30 12:55:21;;;;;;;46.35;5.88;;;5.70;84.50;;;;;;5027738;28;20047;-61
2021/11/30 12:57:46;;;;;;;40.40;6.93;;;5.70;85.00;;;;;;5064118;28;20036;-60
2021/11/30 13:00:22;;;;;;;53.65;6.78;;;5.70;84.40;;;;;;5013153;28;20420;-61